Time;durP1;ratioP1;P1;durP2;ratioP2;P2;SDS_P1;SDS_P2;PMS_P1;PMS_P2;Temp;Humidity;BMP_temperature;BMP_pressure;BME280_temperature;BME280_humidity;BME280_pressure;Samples;Min_cycle;Max_cycle;Signal;HPM_P1;HPM_P2
2021/12/22 00:01:46;;;;;;;22.25;12.82;;;-1.70;99.90;;;;;;5031243;28;20113;-92
2021/12/22 00:04:12;;;;;;;19.08;10.48;;;-1.70;99.90;;;;;;5032673;28;20514;-92
2021/12/22 00:06:37;;;;;;;17.35;10.40;;;-1.70;99.90;;;;;;5033304;28;20033;-91
2021/12/22 00:09:05;;;;;;;21.75;11.73;;;-1.70;99.90;;;;;;5033152;28;20559;-91
2021/12/22 00:11:30;;;;;;;21.05;10.23;;;-1.80;99.90;;;;;;5016704;28;20033;-91
2021/12/22 00:13:56;;;;;;;20.73;10.90;;;-1.80;99.90;;;;;;5033161;28;20098;-92
2021/12/22 00:16:22;;;;;;;16.52;10.43;;;-1.80;99.90;;;;;;5016854;28;20033;-91
2021/12/22 00:18:47;;;;;;;16.90;10.32;;;-1.80;99.90;;;;;;5016561;28;20111;-91
2021/12/22 00:21:14;;;;;;;18.40;10.07;;;-1.90;99.90;;;;;;5016600;28;20095;-91
2021/12/22 00:23:40;;;;;;;18.23;10.10;;;-1.90;99.90;;;;;;5013667;28;20039;-91
2021/12/22 00:26:06;;;;;;;19.90;11.20;;;-1.90;99.90;;;;;;5033481;28;20037;-91
2021/12/22 00:28:33;;;;;;;19.20;10.70;;;-1.90;99.90;;;;;;5033104;28;20051;-91
2021/12/22 00:30:59;;;;;;;18.70;10.07;;;-1.90;99.90;;;;;;5016696;28;20064;-91
2021/12/22 00:33:27;;;;;;;17.83;9.60;;;-1.90;99.90;;;;;;5016371;28;20036;-91
2021/12/22 00:35:53;;;;;;;18.17;10.63;;;-1.90;99.90;;;;;;5032749;28;20052;-91
2021/12/22 00:38:21;;;;;;;21.88;10.70;;;-1.90;99.90;;;;;;5017589;28;20041;-91
2021/12/22 00:40:48;;;;;;;17.05;9.57;;;-1.90;99.90;;;;;;5012037;28;20115;-92
2021/12/22 00:43:14;;;;;;;16.70;9.63;;;-1.90;99.90;;;;;;5032765;28;20410;-91
2021/12/22 00:45:40;;;;;;;17.00;9.48;;;-2.00;99.90;;;;;;5016528;28;20127;-92
2021/12/22 00:48:09;;;;;;;18.73;10.95;;;-2.00;99.90;;;;;;5015550;28;20129;-91
2021/12/22 00:50:36;;;;;;;18.08;10.10;;;-2.00;99.90;;;;;;5014154;28;20379;-92
2021/12/22 00:53:02;;;;;;;17.55;10.38;;;-2.00;99.90;;;;;;5041655;28;20385;-91
2021/12/22 00:55:28;;;;;;;17.05;10.20;;;-2.10;99.90;;;;;;5025825;28;20072;-91
2021/12/22 00:57:53;;;;;;;30.75;15.15;;;-2.10;99.90;;;;;;5027358;28;20449;-91
2021/12/22 01:00:21;;;;;;;28.60;16.10;;;-2.10;99.90;;;;;;5029811;28;20417;-92
2021/12/22 01:02:47;;;;;;;22.98;12.80;;;-2.10;99.90;;;;;;5031324;28;20037;-91
2021/12/22 01:05:15;;;;;;;20.05;10.35;;;-2.10;99.90;;;;;;5026478;28;20042;-91
2021/12/22 01:07:43;;;;;;;18.02;10.25;;;-2.10;99.90;;;;;;5036142;28;20126;-92
2021/12/22 01:10:09;;;;;;;18.27;10.73;;;-2.10;99.90;;;;;;5020195;28;20076;-92
2021/12/22 01:12:36;;;;;;;20.45;10.73;;;-2.10;99.90;;;;;;5020108;28;20402;-91
2021/12/22 01:15:03;;;;;;;17.83;10.25;;;-2.10;99.90;;;;;;5036056;28;20098;-91
2021/12/22 01:17:37;;;;;;;18.70;10.45;;;-2.10;99.90;;;;;;5036257;28;20090;-91
2021/12/22 01:20:14;;;;;;;18.90;10.77;;;-2.20;99.90;;;;;;5019810;28;20113;-91
2021/12/22 01:25:12;;;;;;;20.58;11.05;;;-2.30;99.90;;;;;;5035993;28;20045;-91
2021/12/22 01:27:41;;;;;;;20.20;11.43;;;-2.30;99.90;;;;;;5019531;28;20048;-91
2021/12/22 01:30:18;;;;;;;19.10;10.50;;;-2.30;99.90;;;;;;5019601;28;20037;-91
2021/12/22 01:32:44;;;;;;;20.55;10.52;;;-2.30;99.90;;;;;;5036211;28;20052;-91
2021/12/22 01:35:13;;;;;;;20.05;10.75;;;-2.40;99.90;;;;;;5035744;28;20033;-91
2021/12/22 01:37:38;;;;;;;21.27;11.13;;;-2.40;99.90;;;;;;5035864;28;20558;-91
2021/12/22 01:40:06;;;;;;;22.10;11.75;;;-2.40;99.90;;;;;;5019569;28;20037;-91
2021/12/22 01:42:32;;;;;;;20.23;10.35;;;-2.40;99.90;;;;;;5035937;28;20124;-91
2021/12/22 01:50:36;;;;;;;19.30;10.20;;;-2.40;99.90;;;;;;5035945;28;20495;-91
2021/12/22 01:53:09;;;;;;;17.13;9.82;;;-2.50;99.90;;;;;;5019700;28;20095;-91
2021/12/22 01:55:37;;;;;;;;;;;-2.50;99.90;;;;;;5020011;28;20495;-91
2021/12/22 01:58:05;;;;;;;17.73;10.18;;;-2.50;99.90;;;;;;5019344;28;20040;-91
2021/12/22 02:00:31;;;;;;;22.50;10.68;;;-2.50;99.90;;;;;;5019697;28;20059;-92
2021/12/22 02:02:57;;;;;;;21.33;10.98;;;-2.50;99.90;;;;;;5037212;28;20510;-91
2021/12/22 02:05:23;;;;;;;21.33;11.40;;;-2.50;99.90;;;;;;5038833;28;20134;-91
2021/12/22 02:07:55;;;;;;;17.08;9.80;;;-2.50;99.90;;;;;;5020819;28;20041;-92
2021/12/22 02:10:35;;;;;;;19.00;10.20;;;-2.60;99.90;;;;;;5035992;28;20056;-91
2021/12/22 02:13:03;;;;;;;22.25;11.07;;;-2.60;99.90;;;;;;5036079;28;20037;-91
2021/12/22 02:15:33;;;;;;;21.75;11.85;;;-2.60;99.90;;;;;;5019156;28;20048;-91
2021/12/22 02:18:02;;;;;;;18.40;11.18;;;-2.60;99.90;;;;;;5036317;28;20123;-91
2021/12/22 02:20:28;;;;;;;21.23;10.63;;;-2.60;99.90;;;;;;5019295;28;20052;-91
2021/12/22 02:22:55;;;;;;;17.92;10.98;;;-2.60;99.90;;;;;;5019762;28;20037;-91
2021/12/22 02:25:30;;;;;;;21.00;10.55;;;-2.70;99.90;;;;;;5035971;28;20041;-91
2021/12/22 02:27:56;;;;;;;19.80;10.77;;;-2.70;99.90;;;;;;5019069;28;20033;-91
2021/12/22 02:30:23;;;;;;;17.40;10.20;;;-2.70;99.90;;;;;;5035557;28;20309;-91
2021/12/22 02:35:25;;;;;;;17.38;11.05;;;-2.70;99.90;;;;;;5035139;28;20498;-91
2021/12/22 02:37:50;;;;;;;18.83;10.82;;;-2.70;99.90;;;;;;5035468;28;20252;-91
2021/12/22 02:40:18;;;;;;;20.98;11.40;;;-2.80;99.90;;;;;;5019131;28;20048;-91
2021/12/22 02:42:46;;;;;;;19.10;11.48;;;-2.80;99.90;;;;;;5035539;28;20041;-91
2021/12/22 02:45:15;;;;;;;20.08;11.25;;;-2.80;99.90;;;;;;5035149;28;20086;-91
2021/12/22 02:47:42;;;;;;;23.17;12.15;;;-2.80;99.90;;;;;;5035420;28;20076;-91
2021/12/22 02:50:10;;;;;;;19.65;11.30;;;-2.80;99.90;;;;;;5018499;28;20090;-91
2021/12/22 02:52:49;;;;;;;19.15;11.13;;;-2.80;99.90;;;;;;5018541;28;20037;-91
2021/12/22 02:55:14;;;;;;;20.55;10.77;;;-2.80;99.90;;;;;;5034934;28;20052;-91
2021/12/22 02:57:48;;;;;;;20.90;11.30;;;-2.90;99.90;;;;;;5018785;28;20402;-91
2021/12/22 03:00:32;;;;;;;19.50;11.63;;;-2.90;99.90;;;;;;5035667;28;20119;-91
2021/12/22 03:03:13;;;;;;;19.70;10.68;;;-2.90;99.90;;;;;;5034150;28;20449;-91
2021/12/22 03:05:39;;;;;;;19.75;10.23;;;-2.90;99.90;;;;;;5018563;28;20102;-91
2021/12/22 03:08:05;;;;;;;21.65;10.65;;;-2.90;99.90;;;;;;5018470;28;20033;-91
2021/12/22 03:10:31;;;;;;;20.83;11.73;;;-2.90;99.90;;;;;;5018455;28;20551;-91
2021/12/22 03:13:03;;;;;;;22.88;13.23;;;-2.90;99.90;;;;;;5034550;28;20128;-91
2021/12/22 03:15:30;;;;;;;20.30;11.10;;;-2.90;99.90;;;;;;5034483;28;20052;-91
2021/12/22 03:17:56;;;;;;;21.88;12.02;;;-2.90;99.90;;;;;;5018394;28;20286;-91
2021/12/22 03:20:21;;;;;;;17.95;10.40;;;-3.00;99.90;;;;;;5033876;28;20037;-91
2021/12/22 03:22:47;;;;;;;23.67;13.25;;;-3.00;99.90;;;;;;5018346;28;20106;-91
2021/12/22 03:25:17;;;;;;;19.42;10.00;;;-3.00;99.90;;;;;;5017994;28;20524;-91
2021/12/22 03:27:49;;;;;;;22.33;10.60;;;-3.00;99.90;;;;;;5018154;28;20076;-91
2021/12/22 03:30:18;;;;;;;23.10;10.88;;;-3.00;99.90;;;;;;5018065;28;20041;-91
2021/12/22 03:32:43;;;;;;;21.55;10.27;;;-3.00;99.90;;;;;;5017726;28;20053;-91
2021/12/22 03:35:15;;;;;;;19.42;10.75;;;-3.10;99.90;;;;;;5033780;28;20045;-91
2021/12/22 03:37:41;;;;;;;20.05;10.18;;;-3.10;99.90;;;;;;5034486;28;20048;-91
2021/12/22 03:40:07;;;;;;;21.00;10.93;;;-3.10;99.90;;;;;;5034353;28;20037;-91
2021/12/22 03:42:32;;;;;;;19.08;10.23;;;-3.10;99.90;;;;;;5017445;28;20375;-91
2021/12/22 03:44:58;;;;;;;17.90;10.95;;;-3.10;99.90;;;;;;5034115;28;20076;-91
2021/12/22 03:47:25;;;;;;;17.63;9.50;;;-3.10;99.90;;;;;;5018092;28;20072;-91
2021/12/22 03:49:51;;;;;;;19.65;11.15;;;-3.10;99.90;;;;;;5034135;28;20041;-91
2021/12/22 03:52:17;;;;;;;24.08;11.25;;;-3.10;99.90;;;;;;5034057;28;20123;-91
2021/12/22 03:54:42;;;;;;;21.50;10.98;;;-3.10;99.90;;;;;;5017149;28;20041;-91
2021/12/22 03:57:08;;;;;;;20.85;10.68;;;-3.10;99.90;;;;;;5017781;28;20045;-91
2021/12/22 03:59:34;;;;;;;20.55;11.15;;;-3.10;99.90;;;;;;5033597;28;20479;-91
2021/12/22 04:01:59;;;;;;;20.17;10.85;;;-3.10;99.90;;;;;;5034130;28;20090;-91
2021/12/22 04:04:25;;;;;;;20.73;11.40;;;-3.10;99.90;;;;;;5016477;28;20083;-91
2021/12/22 04:06:51;;;;;;;20.50;10.80;;;-3.10;99.90;;;;;;5017280;28;20041;-91
2021/12/22 04:09:17;;;;;;;22.95;11.77;;;-3.10;99.90;;;;;;5017580;28;20101;-91
2021/12/22 04:11:44;;;;;;;19.20;10.43;;;-3.10;99.90;;;;;;5017456;28;20052;-91
2021/12/22 04:14:11;;;;;;;18.52;10.25;;;-3.10;99.90;;;;;;5017093;28;20409;-91
2021/12/22 04:16:37;;;;;;;18.30;10.65;;;-3.10;99.90;;;;;;5033872;28;20459;-91
2021/12/22 04:19:03;;;;;;;20.52;11.35;;;-3.10;99.90;;;;;;5033660;28;20041;-90
2021/12/22 04:21:30;;;;;;;19.52;10.73;;;-3.20;99.90;;;;;;5016999;28;20512;-91
2021/12/22 04:23:56;;;;;;;19.55;10.70;;;-3.20;99.90;;;;;;5017017;28;20040;-91
2021/12/22 04:26:23;;;;;;;18.42;10.95;;;-3.10;99.90;;;;;;5033653;28;20041;-91
2021/12/22 04:28:49;;;;;;;20.98;10.93;;;-3.20;99.90;;;;;;5033376;28;20112;-91
2021/12/22 04:31:15;;;;;;;19.92;10.18;;;-3.20;99.90;;;;;;5016554;28;20122;-91
2021/12/22 04:33:40;;;;;;;19.35;10.70;;;-3.20;99.90;;;;;;5017060;28;20092;-91
2021/12/22 04:36:06;;;;;;;19.42;10.70;;;-3.20;99.90;;;;;;5016788;28;20466;-90
2021/12/22 04:38:31;;;;;;;17.55;9.98;;;-3.20;99.90;;;;;;5033153;28;20116;-91
2021/12/22 04:40:57;;;;;;;19.15;10.15;;;-3.20;99.90;;;;;;5031607;28;20087;-91
2021/12/22 04:43:23;;;;;;;22.35;11.68;;;-3.20;99.90;;;;;;5016661;28;20098;-91
2021/12/22 04:45:48;;;;;;;19.58;10.93;;;-3.20;99.90;;;;;;5033370;28;20064;-91
2021/12/22 04:48:14;;;;;;;22.10;10.18;;;-3.30;99.90;;;;;;5016820;28;20083;-91
2021/12/22 04:50:40;;;;;;;20.15;10.82;;;-3.30;99.90;;;;;;5016990;28;20086;-91
2021/12/22 04:55:31;;;;;;;19.35;10.35;;;-3.30;99.90;;;;;;5033363;28;20131;-91
2021/12/22 04:57:58;;;;;;;18.67;10.38;;;-3.30;99.90;;;;;;5016566;28;20033;-91
2021/12/22 05:00:27;;;;;;;19.80;9.65;;;-3.30;99.90;;;;;;5032891;28;20486;-90
2021/12/22 05:02:54;;;;;;;16.92;9.55;;;-3.30;99.90;;;;;;5015881;28;20041;-91
2021/12/22 05:05:20;;;;;;;18.48;9.95;;;-3.40;99.90;;;;;;5032536;28;20080;-91
2021/12/22 05:07:47;;;;;;;17.70;9.25;;;-3.40;99.90;;;;;;5016358;28;20155;-90
2021/12/22 05:10:17;;;;;;;19.55;9.70;;;-3.40;99.90;;;;;;5016741;28;20045;-91
2021/12/22 05:12:44;;;;;;;18.50;9.48;;;-3.40;99.90;;;;;;5033278;28;20090;-91
2021/12/22 05:15:10;;;;;;;18.80;10.38;;;-3.40;99.90;;;;;;5032756;28;20102;-91
2021/12/22 05:18:11;;;;;;;19.30;10.05;;;-3.40;99.90;;;;;;5033360;28;20091;-91
2021/12/22 05:20:25;;;;;;;20.45;11.05;;;-3.40;99.90;;;;;;5032854;28;20409;-91
2021/12/22 05:22:51;;;;;;;17.55;10.45;;;-3.50;99.90;;;;;;5033083;28;20045;-91
2021/12/22 05:25:17;;;;;;;19.42;10.30;;;-3.50;99.90;;;;;;5032360;28;20037;-90
2021/12/22 05:27:44;;;;;;;18.88;10.68;;;-3.50;99.90;;;;;;5032215;28;20044;-91
2021/12/22 05:30:11;;;;;;;19.20;10.60;;;-3.50;99.90;;;;;;5016069;28;20423;-91
2021/12/22 05:32:38;;;;;;;20.88;10.35;;;-3.50;99.90;;;;;;5016764;28;20774;-91
2021/12/22 05:35:06;;;;;;;21.20;10.23;;;-3.50;99.90;;;;;;5032551;28;20041;-90
2021/12/22 05:37:32;;;;;;;20.10;10.80;;;-3.50;99.90;;;;;;5032550;28;20043;-91
2021/12/22 05:39:58;;;;;;;20.63;10.68;;;-3.50;99.90;;;;;;5032861;28;20037;-91
2021/12/22 05:42:24;;;;;;;20.60;10.68;;;-3.50;99.90;;;;;;5016334;28;20072;-91
2021/12/22 05:44:50;;;;;;;21.77;10.93;;;-3.50;99.90;;;;;;5030934;28;20520;-91
2021/12/22 05:47:16;;;;;;;22.58;10.65;;;-3.50;99.90;;;;;;5019776;28;20040;-91
2021/12/22 05:49:43;;;;;;;17.40;10.43;;;-3.50;99.90;;;;;;5036348;28;20052;-91
2021/12/22 05:52:09;;;;;;;21.40;11.68;;;-3.50;99.90;;;;;;5036156;28;20049;-90
2021/12/22 05:54:35;;;;;;;20.08;11.88;;;-3.50;99.90;;;;;;5019064;28;20044;-91
2021/12/22 05:57:00;;;;;;;21.70;10.27;;;-3.50;99.90;;;;;;5019567;28;20037;-91
2021/12/22 05:59:26;;;;;;;19.88;10.95;;;-3.50;99.90;;;;;;5036364;28;20157;-90
2021/12/22 06:01:52;;;;;;;21.67;11.13;;;-3.50;99.90;;;;;;5036702;28;20040;-91
2021/12/22 06:04:17;;;;;;;20.55;10.55;;;-3.50;99.90;;;;;;5015635;28;20087;-91
2021/12/22 06:06:43;;;;;;;21.83;11.15;;;-3.50;99.90;;;;;;5019177;28;20486;-90
2021/12/22 06:09:09;;;;;;;23.17;10.27;;;-3.40;99.90;;;;;;5035134;28;20036;-91
2021/12/22 06:11:34;;;;;;;20.58;11.32;;;-3.50;99.90;;;;;;5019758;28;20075;-91
2021/12/22 06:14:00;;;;;;;20.17;10.95;;;-3.50;99.90;;;;;;5035893;28;20044;-91
2021/12/22 06:16:27;;;;;;;24.60;11.45;;;-3.50;99.90;;;;;;5036027;28;20117;-91
2021/12/22 06:18:57;;;;;;;20.38;10.57;;;-3.50;99.90;;;;;;5019346;28;20452;-90
2021/12/22 06:21:24;;;;;;;17.73;10.23;;;-3.50;99.90;;;;;;5035763;28;20413;-91
2021/12/22 06:23:49;;;;;;;22.40;11.23;;;-3.50;99.90;;;;;;5035584;28;20048;-91
2021/12/22 06:26:15;;;;;;;23.98;11.27;;;-3.50;99.90;;;;;;5053382;28;20053;-91
2021/12/22 06:28:40;;;;;;;19.83;11.23;;;-3.50;99.90;;;;;;5035393;28;20045;-91
2021/12/22 06:31:06;;;;;;;20.48;10.65;;;-3.50;99.90;;;;;;5019399;28;20041;-91
2021/12/22 06:33:32;;;;;;;20.85;10.38;;;-3.50;99.90;;;;;;5035398;28;20131;-91
2021/12/22 06:35:58;;;;;;;21.80;10.02;;;-3.50;99.90;;;;;;5035321;28;20037;-91
2021/12/22 06:38:24;;;;;;;19.13;10.23;;;-3.50;99.90;;;;;;5035697;28;20120;-91
2021/12/22 06:40:50;;;;;;;20.20;10.57;;;-3.50;99.90;;;;;;5035785;28;20127;-90
2021/12/22 06:43:16;;;;;;;20.35;10.48;;;-3.50;99.90;;;;;;5019053;28;20052;-90
2021/12/22 06:45:42;;;;;;;20.15;11.00;;;-3.50;99.90;;;;;;5019032;28;20079;-91
2021/12/22 06:48:08;;;;;;;19.98;10.40;;;-3.50;99.90;;;;;;5018592;28;20080;-90
2021/12/22 06:50:34;;;;;;;24.00;11.43;;;-3.50;99.90;;;;;;5019145;28;20565;-91
2021/12/22 06:52:59;;;;;;;21.52;10.25;;;-3.50;99.90;;;;;;5018522;28;20095;-91
2021/12/22 06:55:25;;;;;;;22.88;10.90;;;-3.50;99.90;;;;;;5034602;28;20041;-91
2021/12/22 06:57:51;;;;;;;21.60;10.90;;;-3.50;99.90;;;;;;5035299;28;20037;-91
2021/12/22 07:00:17;;;;;;;19.55;11.00;;;-3.50;99.90;;;;;;5018772;28;20471;-91
2021/12/22 07:02:43;;;;;;;20.60;10.98;;;-3.50;99.90;;;;;;5018521;28;20041;-91
2021/12/22 07:05:10;;;;;;;22.13;11.68;;;-3.50;99.90;;;;;;5018124;28;20041;-91
2021/12/22 07:07:36;;;;;;;20.27;10.68;;;-3.50;99.90;;;;;;5035388;28;20533;-91
2021/12/22 07:10:07;;;;;;;20.27;10.80;;;-3.50;99.90;;;;;;5035151;28;20080;-91
2021/12/22 07:12:33;;;;;;;24.35;12.00;;;-3.50;99.90;;;;;;5018302;28;20045;-90
2021/12/22 07:14:59;;;;;;;22.63;11.32;;;-3.50;99.90;;;;;;5034520;28;20491;-91
2021/12/22 07:17:25;;;;;;;19.10;10.18;;;-3.50;99.90;;;;;;5034665;28;20048;-91
2021/12/22 07:19:50;;;;;;;24.10;11.25;;;-3.50;99.90;;;;;;5018316;28;20437;-91
2021/12/22 07:22:16;;;;;;;22.08;11.65;;;-3.50;99.90;;;;;;5034949;28;20029;-91
2021/12/22 07:24:42;;;;;;;23.15;11.45;;;-3.50;99.90;;;;;;5034210;28;20437;-91
2021/12/22 07:27:08;;;;;;;19.73;11.25;;;-3.50;99.90;;;;;;5034690;28;20040;-91
2021/12/22 07:29:33;;;;;;;21.73;11.68;;;-3.50;99.90;;;;;;5034532;28;20418;-91
2021/12/22 07:31:59;;;;;;;19.63;9.63;;;-3.50;99.90;;;;;;5017949;28;20079;-91
2021/12/22 07:34:46;;;;;;;21.70;11.45;;;-3.50;99.90;;;;;;5017878;28;20045;-91
2021/12/22 07:37:23;;;;;;;22.08;10.93;;;-3.50;99.90;;;;;;5017887;28;20037;-90
2021/12/22 07:39:49;;;;;;;19.63;10.30;;;-3.50;99.90;;;;;;5018311;28;20059;-91
2021/12/22 07:42:14;;;;;;;21.02;10.85;;;-3.50;99.90;;;;;;5033901;28;20063;-91
2021/12/22 07:44:40;;;;;;;21.33;11.07;;;-3.50;99.90;;;;;;5018052;28;20037;-91
2021/12/22 07:47:06;;;;;;;19.35;10.40;;;-3.50;99.90;;;;;;5018185;28;20548;-91
2021/12/22 07:49:31;;;;;;;18.83;11.10;;;-3.50;99.90;;;;;;5017507;28;20514;-91
2021/12/22 07:51:57;;;;;;;19.30;10.60;;;-3.50;99.90;;;;;;5017774;28;20041;-91
2021/12/22 07:54:23;;;;;;;22.08;10.85;;;-3.50;99.90;;;;;;5033711;28;20048;-91
2021/12/22 07:56:48;;;;;;;20.17;10.43;;;-3.40;99.90;;;;;;5034405;28;20033;-91
2021/12/22 07:59:14;;;;;;;21.45;10.40;;;-3.40;99.90;;;;;;5034172;28;20522;-91
2021/12/22 08:01:39;;;;;;;17.08;10.40;;;-3.40;99.90;;;;;;5033572;28;20076;-91
2021/12/22 08:04:05;;;;;;;20.15;10.05;;;-3.40;99.90;;;;;;5017431;28;20060;-91
2021/12/22 08:06:31;;;;;;;19.65;10.88;;;-3.40;99.90;;;;;;5033471;28;20104;-91
2021/12/22 08:08:56;;;;;;;18.75;9.63;;;-3.40;99.90;;;;;;5033827;28;20457;-91
2021/12/22 08:11:22;;;;;;;23.10;11.20;;;-3.40;99.90;;;;;;5017635;28;20059;-91
2021/12/22 08:13:48;;;;;;;20.52;11.05;;;-3.30;99.90;;;;;;5033457;28;20102;-91
2021/12/22 08:16:13;;;;;;;20.38;11.52;;;-3.30;99.90;;;;;;5033925;28;20044;-91
2021/12/22 08:18:39;;;;;;;21.77;11.20;;;-3.30;99.90;;;;;;5017145;28;20037;-91
2021/12/22 08:21:05;;;;;;;21.00;11.10;;;-3.20;99.90;;;;;;5033255;28;20055;-91
2021/12/22 08:23:30;;;;;;;23.65;11.45;;;-3.20;99.90;;;;;;5016608;28;20037;-92
2021/12/22 08:25:56;;;;;;;22.27;11.18;;;-3.20;99.90;;;;;;5017453;28;20094;-91
2021/12/22 08:28:21;;;;;;;23.88;11.45;;;-3.10;99.90;;;;;;5033769;28;20044;-91
2021/12/22 08:30:47;;;;;;;25.05;11.90;;;-3.10;99.90;;;;;;5031195;28;20501;-91
2021/12/22 08:33:21;;;;;;;21.23;11.68;;;-3.00;99.90;;;;;;5016858;28;20087;-91
2021/12/22 08:38:55;;;;;;;27.42;12.38;;;-2.90;99.90;;;;;;5033292;28;20044;-91
2021/12/22 08:41:24;;;;;;;24.15;12.05;;;-2.90;99.90;;;;;;5016708;28;20063;-91
2021/12/22 08:43:51;;;;;;;22.60;12.25;;;-2.90;99.90;;;;;;5016071;28;20044;-91
2021/12/22 08:46:17;;;;;;;24.50;12.25;;;-2.80;99.90;;;;;;5032969;28;20502;-91
2021/12/22 08:48:42;;;;;;;25.00;12.10;;;-2.80;99.90;;;;;;5015943;28;20079;-91
2021/12/22 08:51:08;;;;;;;24.10;12.57;;;-2.70;99.90;;;;;;5016802;28;20080;-91
2021/12/22 08:53:34;;;;;;;24.50;12.75;;;-2.70;99.90;;;;;;5016475;28;20485;-91
2021/12/22 08:56:00;;;;;;;21.70;11.05;;;-2.70;99.90;;;;;;5033058;28;20041;-91
2021/12/22 08:58:25;;;;;;;21.88;11.30;;;-2.60;99.90;;;;;;5032683;28;20091;-91
2021/12/22 09:00:51;;;;;;;21.65;11.80;;;-2.60;99.90;;;;;;5033738;28;20032;-91
2021/12/22 09:03:16;;;;;;;22.60;12.40;;;-2.50;99.90;;;;;;5031741;28;20506;-92
2021/12/22 09:05:42;;;;;;;24.00;12.32;;;-2.50;99.90;;;;;;5032788;28;20044;-92
2021/12/22 09:08:07;;;;;;;20.75;11.35;;;-2.40;99.90;;;;;;5016429;28;20041;-91
2021/12/22 09:10:33;;;;;;;23.95;13.60;;;-2.30;99.90;;;;;;5033314;28;20041;-91
2021/12/22 09:12:59;;;;;;;27.00;12.45;;;-2.30;99.90;;;;;;5016423;28;20460;-92
2021/12/22 09:15:24;;;;;;;22.60;12.48;;;-2.20;99.90;;;;;;5033064;28;20392;-91
2021/12/22 09:17:50;;;;;;;22.33;11.85;;;-2.20;99.90;;;;;;5018361;28;20037;-91
2021/12/22 09:20:16;;;;;;;23.27;12.25;;;-2.10;99.90;;;;;;5036855;28;20422;-91
2021/12/22 09:22:41;;;;;;;25.42;12.27;;;-2.10;99.90;;;;;;5037208;28;20036;-91
2021/12/22 09:25:09;;;;;;;20.33;12.20;;;-2.00;99.90;;;;;;5020447;28;20033;-92
2021/12/22 09:27:35;;;;;;;25.35;13.30;;;-2.00;99.90;;;;;;5035492;28;20041;-92
2021/12/22 09:30:01;;;;;;;24.25;12.43;;;-1.90;99.90;;;;;;5020247;28;20055;-91
2021/12/22 09:32:26;;;;;;;24.15;13.50;;;-1.90;99.90;;;;;;5018831;28;20048;-92
2021/12/22 09:34:52;;;;;;;23.98;12.38;;;-1.80;99.90;;;;;;5019477;28;20063;-91
2021/12/22 09:37:18;;;;;;;23.50;13.10;;;-1.80;99.90;;;;;;5020224;28;20029;-92
2021/12/22 09:39:45;;;;;;;25.20;12.82;;;-1.70;99.90;;;;;;5036601;28;20040;-92
2021/12/22 09:42:11;;;;;;;22.15;12.15;;;-1.70;99.90;;;;;;5020340;28;20033;-92
2021/12/22 09:44:43;;;;;;;22.13;13.02;;;-1.60;99.90;;;;;;5036662;28;20454;-92
2021/12/22 09:47:11;;;;;;;20.92;12.00;;;-1.60;99.90;;;;;;5019735;28;20055;-92
2021/12/22 09:52:23;;;;;;;22.27;12.18;;;-1.40;99.90;;;;;;5036567;28;20053;-92
2021/12/22 09:54:51;;;;;;;22.77;12.38;;;-1.40;99.90;;;;;;5019906;28;20041;-92
2021/12/22 09:57:19;;;;;;;21.00;12.52;;;-1.30;99.90;;;;;;5036470;28;20037;-91
2021/12/22 09:59:46;;;;;;;21.13;12.73;;;-1.20;99.90;;;;;;5020231;28;20044;-92
2021/12/22 10:02:12;;;;;;;21.55;12.48;;;-1.10;99.90;;;;;;5020178;28;20478;-92
2021/12/22 10:04:38;;;;;;;21.77;11.70;;;-1.00;99.90;;;;;;5019049;28;20090;-92
2021/12/22 10:07:04;;;;;;;19.55;11.60;;;-1.00;99.90;;;;;;5051582;28;20467;-92
2021/12/22 10:09:31;;;;;;;19.42;11.35;;;-0.90;99.90;;;;;;5039849;28;20047;-92
2021/12/22 10:12:03;;;;;;;22.73;11.95;;;-0.80;99.90;;;;;;5056180;28;20052;-92
2021/12/22 10:14:30;;;;;;;21.23;11.05;;;-0.70;99.90;;;;;;5055691;28;20133;-92
2021/12/22 10:16:56;;;;;;;20.00;11.48;;;-0.70;99.90;;;;;;5056062;28;20079;-92
2021/12/22 10:19:26;;;;;;;20.58;11.43;;;-0.50;99.90;;;;;;5039621;28;20405;-92
2021/12/22 10:22:00;;;;;;;19.77;11.40;;;-0.50;99.90;;;;;;5039911;28;20397;-92
2021/12/22 10:24:41;;;;;;;22.65;13.02;;;-0.30;99.90;;;;;;5039474;28;20127;-92
2021/12/22 10:27:10;;;;;;;19.73;11.63;;;-0.20;99.90;;;;;;5019803;28;20418;-94
2021/12/22 10:29:36;;;;;;;22.85;12.65;;;-0.10;99.90;;;;;;5034508;28;20036;-93
2021/12/22 10:32:11;;;;;;;20.88;11.75;;;0.10;99.90;;;;;;5035463;28;20037;-93
2021/12/22 10:35:05;;;;;;;20.60;11.43;;;0.20;99.90;;;;;;5019054;28;20041;-93
2021/12/22 10:37:39;;;;;;;20.67;11.45;;;0.30;99.90;;;;;;5019445;28;20047;-93
2021/12/22 10:40:25;;;;;;;19.88;11.23;;;0.50;99.90;;;;;;5035480;28;20041;-93
2021/12/22 10:42:51;;;;;;;17.63;10.30;;;0.60;99.90;;;;;;5019327;28;20044;-93
2021/12/22 10:45:18;;;;;;;19.50;11.65;;;0.70;99.90;;;;;;5018722;28;20110;-93
2021/12/22 10:50:41;;;;;;;20.00;11.73;;;0.90;99.90;;;;;;5035619;28;20053;-93
2021/12/22 10:53:09;;;;;;;20.52;12.07;;;0.90;99.90;;;;;;5014633;28;20330;-93
2021/12/22 10:55:37;;;;;;;20.58;11.43;;;1.00;99.90;;;;;;5034581;28;20073;-92
2021/12/22 10:58:19;;;;;;;20.63;11.43;;;1.00;99.90;;;;;;5038406;28;20268;-92
2021/12/22 11:01:12;;;;;;;21.10;11.75;;;1.10;99.90;;;;;;5018802;28;20025;-92
2021/12/22 11:03:47;;;;;;;20.45;11.55;;;1.10;99.90;;;;;;5034638;28;20045;-93
2021/12/22 11:06:39;;;;;;;18.77;11.05;;;1.20;99.90;;;;;;5018849;28;20456;-92
2021/12/22 11:09:15;;;;;;;20.70;11.98;;;1.30;99.90;;;;;;5032709;28;20513;-92
2021/12/22 11:11:55;;;;;;;19.02;11.73;;;1.30;99.90;;;;;;5035607;28;20041;-92
2021/12/22 11:14:23;;;;;;;20.08;11.25;;;1.50;99.90;;;;;;5017795;28;20040;-92
2021/12/22 11:17:01;;;;;;;19.27;11.48;;;1.60;99.90;;;;;;5018857;28;20128;-92
2021/12/22 11:19:30;;;;;;;19.45;11.52;;;1.80;99.90;;;;;;5018142;28;20495;-92
2021/12/22 11:22:09;;;;;;;20.05;11.75;;;2.00;99.90;;;;;;5035961;28;20125;-92
2021/12/22 11:24:40;;;;;;;17.75;11.43;;;2.20;99.90;;;;;;5024752;28;20033;-92
2021/12/22 11:27:07;;;;;;;19.35;11.52;;;2.30;99.90;;;;;;5047579;28;20490;-92
2021/12/22 11:29:36;;;;;;;18.58;11.52;;;2.40;99.90;;;;;;5038512;28;20043;-92
2021/12/22 11:32:04;;;;;;;19.05;12.48;;;2.50;99.90;;;;;;5030970;28;20451;-92
2021/12/22 11:34:35;;;;;;;17.77;11.40;;;2.60;99.90;;;;;;5015148;28;20053;-92
2021/12/22 11:37:02;;;;;;;17.63;11.25;;;2.70;99.90;;;;;;5015170;28;20037;-92
2021/12/22 11:39:30;;;;;;;19.70;11.30;;;2.70;99.90;;;;;;5031087;28;20056;-92
2021/12/22 11:42:02;;;;;;;19.02;11.73;;;2.80;99.90;;;;;;5013633;28;20068;-92
2021/12/22 11:44:29;;;;;;;17.42;10.48;;;2.90;99.90;;;;;;5014404;28;20041;-92
2021/12/22 11:46:58;;;;;;;19.15;11.15;;;3.10;99.90;;;;;;5015209;28;20029;-91
2021/12/22 11:49:25;;;;;;;17.38;10.90;;;3.20;99.90;;;;;;5014125;28;20034;-92
2021/12/22 11:51:51;;;;;;;16.73;10.65;;;3.40;99.90;;;;;;5030490;28;20037;-92
2021/12/22 11:54:24;;;;;;;19.55;11.48;;;3.50;99.90;;;;;;5014333;28;20076;-92
2021/12/22 11:56:51;;;;;;;16.95;10.85;;;3.60;99.90;;;;;;5015875;28;20045;-92
2021/12/22 11:59:38;;;;;;;16.52;10.80;;;3.70;99.90;;;;;;5018203;28;20123;-91
2021/12/22 12:02:33;;;;;;;18.73;11.32;;;3.90;99.90;;;;;;5034369;28;20115;-92
2021/12/22 12:05:32;;;;;;;19.73;10.98;;;4.10;99.90;;;;;;5015096;28;20099;-91
2021/12/22 12:08:07;;;;;;;17.33;10.65;;;4.40;99.90;;;;;;4990746;28;20135;-92
2021/12/22 12:10:45;;;;;;;17.25;11.13;;;4.60;99.90;;;;;;5018049;28;20040;-92
2021/12/22 12:13:24;;;;;;;17.95;11.32;;;4.90;99.90;;;;;;5033297;28;20048;-92
2021/12/22 12:22:11;;;;;;;17.23;11.18;;;6.00;98.90;;;;;;5033195;28;20041;-92
2021/12/22 12:24:45;;;;;;;20.20;13.63;;;6.40;98.30;;;;;;5032614;28;20056;-92
2021/12/22 12:27:40;;;;;;;16.83;11.35;;;6.90;97.30;;;;;;5034031;28;20041;-91
2021/12/22 12:30:07;;;;;;;17.25;12.07;;;7.40;94.80;;;;;;5017440;28;20143;-92
2021/12/22 12:32:42;;;;;;;15.32;11.27;;;7.80;94.70;;;;;;5033813;28;20522;-91
2021/12/22 12:35:20;;;;;;;17.63;12.10;;;8.20;93.50;;;;;;5033031;28;20075;-90
2021/12/22 12:38:09;;;;;;;14.38;10.65;;;9.00;92.70;;;;;;5033611;28;20115;-91
2021/12/22 12:41:19;;;;;;;15.65;10.55;;;9.40;88.00;;;;;;5031582;28;20068;-91
2021/12/22 12:43:52;;;;;;;15.48;10.55;;;9.70;85.40;;;;;;4956563;28;20109;-90
2021/12/22 12:46:21;;;;;;;15.48;11.15;;;10.10;84.10;;;;;;4973482;28;20055;-91
2021/12/22 12:48:49;;;;;;;14.75;11.15;;;10.40;80.70;;;;;;5007456;28;20477;-90
2021/12/22 12:51:18;;;;;;;14.70;11.00;;;10.60;76.60;;;;;;5033515;28;20048;-91
2021/12/22 12:53:49;;;;;;;15.18;10.95;;;10.50;74.50;;;;;;5016571;28;20037;-92
2021/12/22 12:56:17;;;;;;;14.88;11.15;;;10.40;73.30;;;;;;5031906;28;20135;-91
2021/12/22 12:58:56;;;;;;;14.70;10.52;;;10.20;73.40;;;;;;5031404;28;20123;-91
2021/12/22 13:01:47;;;;;;;14.18;10.48;;;10.00;71.90;;;;;;5026478;28;20574;-91
2021/12/22 13:04:20;;;;;;;14.98;11.05;;;9.60;71.40;;;;;;5015631;28;20037;-90